Time;durP1;ratioP1;P1;durP2;ratioP2;P2;SDS_P1;SDS_P2;PMS_P1;PMS_P2;Temp;Humidity;BMP_temperature;BMP_pressure;BME280_temperature;BME280_humidity;BME280_pressure;Samples;Min_cycle;Max_cycle;Signal;HPM_P1;HPM_P2
2023/03/27 00:00:19;;;;;;;9.43;3.53;;;;;;;1.32;100.00;101259.06;6267670;22;20072;-90
2023/03/27 00:02:48;;;;;;;12.65;3.33;;;;;;;1.46;100.00;101287.81;6268997;22;20070;-90
2023/03/27 00:05:19;;;;;;;11.43;3.85;;;;;;;1.36;100.00;101275.66;6269609;22;19996;-89
2023/03/27 00:07:47;;;;;;;9.90;3.30;;;;;;;1.36;100.00;101263.41;6244015;23;20023;-88
2023/03/27 00:10:13;;;;;;;11.55;3.78;;;;;;;1.46;100.00;101288.72;6243443;22;20016;-89
2023/03/27 00:12:39;;;;;;;15.63;3.67;;;;;;;1.40;100.00;101273.00;6271277;22;20020;-90
2023/03/27 00:15:05;;;;;;;9.27;3.45;;;;;;;1.67;100.00;101326.16;6271190;22;20194;-88
2023/03/27 00:17:31;;;;;;;10.32;3.30;;;;;;;1.43;100.00;101278.25;6269840;22;20011;-91
2023/03/27 00:19:56;;;;;;;9.23;3.22;;;;;;;1.69;100.00;101322.66;6269720;22;20008;-90
2023/03/27 00:22:22;;;;;;;9.95;3.80;;;;;;;1.71;100.00;101317.41;6269393;22;20276;-88
2023/03/27 00:24:47;;;;;;;11.57;3.58;;;;;;;1.79;100.00;101323.47;6267336;22;20004;-89
2023/03/27 00:27:13;;;;;;;11.23;3.33;;;;;;;1.95;100.00;101342.59;6244151;23;20035;-90
2023/03/27 00:29:38;;;;;;;8.85;3.47;;;;;;;1.81;100.00;101319.09;6242663;23;20003;-88
2023/03/27 00:32:04;;;;;;;12.15;3.10;;;;;;;1.78;100.00;101319.09;6244081;23;20418;-89
2023/03/27 00:34:30;;;;;;;12.10;3.88;;;;;;;1.61;100.00;101279.00;6216794;23;20012;-89
2023/03/27 00:36:55;;;;;;;9.88;3.63;;;;;;;1.59;100.00;101292.13;6244132;23;20417;-89
2023/03/27 00:39:21;;;;;;;10.70;3.30;;;;;;;1.91;100.00;101356.63;6216063;23;20027;-88
2023/03/27 00:41:47;;;;;;;12.13;3.83;;;;;;;1.79;100.00;101354.97;6244120;23;20448;-89
2023/03/27 00:44:30;;;;;;;9.38;3.55;;;;;;;1.55;100.00;101329.78;6244740;23;20087;-89
2023/03/27 00:46:56;;;;;;;13.18;3.22;;;;;;;1.27;100.00;101294.94;6243641;23;20030;-88
2023/03/27 00:49:25;;;;;;;11.65;3.67;;;;;;;1.16;100.00;101291.50;6242764;23;20014;-88
2023/03/27 00:51:51;;;;;;;12.20;3.58;;;;;;;1.41;100.00;101344.69;6241897;23;20004;-89
2023/03/27 00:54:25;;;;;;;11.43;3.83;;;;;;;1.18;100.00;101308.09;6214631;23;20070;-89
2023/03/27 00:56:55;;;;;;;10.20;3.85;;;;;;;1.16;100.00;101315.09;6241705;23;20071;-89
2023/03/27 00:59:27;;;;;;;10.73;3.35;;;;;;;1.47;100.00;101352.53;6214508;23;20046;-90
2023/03/27 01:01:52;;;;;;;13.82;3.63;;;;;;;1.24;100.00;101311.56;6215019;23;20433;-90
2023/03/27 01:04:21;;;;;;;11.60;3.20;;;;;;;1.45;100.00;101355.16;6214512;23;20004;-90
2023/03/27 01:06:50;;;;;;;13.93;3.95;;;;;;;1.35;100.00;101329.88;6240843;23;20000;-89
2023/03/27 01:09:15;;;;;;;8.90;3.60;;;;;;;1.56;100.00;101362.97;6213431;23;20330;-89
2023/03/27 01:12:05;;;;;;;10.75;3.38;;;;;;;1.74;100.00;101388.25;6250186;23;20004;-89
2023/03/27 01:14:49;;;;;;;9.90;3.10;;;;;;;1.71;100.00;101388.25;6246172;23;19997;-88
2023/03/27 01:17:20;;;;;;;14.57;3.47;;;;;;;1.73;100.00;101391.75;6240439;22;20019;-89
2023/03/27 01:20:04;;;;;;;9.55;3.45;;;;;;;1.80;100.00;101396.09;6241341;23;20008;-90
2023/03/27 01:22:32;;;;;;;5.70;3.00;;;;;;;1.87;100.00;101397.78;6241186;23;20012;-89
2023/03/27 01:25:35;;;;;;;12.68;3.95;;;;;;;1.94;100.00;101396.88;6213168;23;20038;-89
2023/03/27 01:28:03;;;;;;;11.48;3.40;;;;;;;2.00;100.00;101404.69;6239707;23;20008;-89
2023/03/27 01:30:30;;;;;;;9.25;3.25;;;;;;;1.80;100.00;101356.72;6213001;23;20008;-88
2023/03/27 01:33:24;;;;;;;7.78;2.70;;;;;;;2.10;100.00;101412.53;6241390;23;20015;-89
2023/03/27 01:35:55;;;;;;;;;;;;;;;2.15;100.00;101414.22;6241936;23;20081;-89
2023/03/27 01:38:43;;;;;;;9.13;3.10;;;;;;;1.99;100.00;101392.44;6238719;23;19912;-89
2023/03/27 01:41:13;;;;;;;8.02;2.97;;;;;;;2.08;100.00;101419.53;6240279;23;20000;-89
2023/03/27 01:43:52;;;;;;;7.50;2.70;;;;;;;2.17;100.00;101435.22;6239806;23;20004;-89
2023/03/27 01:46:30;;;;;;;7.18;3.00;;;;;;;2.11;100.00;101425.63;6222007;23;20004;-88
2023/03/27 01:49:07;;;;;;;7.82;2.60;;;;;;;2.04;100.00;101429.16;6253258;23;20015;-88
2023/03/27 01:51:48;;;;;;;5.30;2.17;;;;;;;1.90;100.00;101417.91;6253980;23;20060;-88
2023/03/27 01:54:28;;;;;;;9.35;3.03;;;;;;;1.96;100.00;101431.84;6245666;23;20065;-88
2023/03/27 01:57:07;;;;;;;9.55;2.80;;;;;;;1.96;100.00;101441.47;6240002;23;20079;-91
2023/03/27 01:59:38;;;;;;;6.13;2.97;;;;;;;1.90;100.00;101431.03;6240349;23;20004;-88
2023/03/27 02:02:10;;;;;;;5.18;2.70;;;;;;;1.88;100.00;101420.53;6240585;23;20004;-89
2023/03/27 02:04:57;;;;;;;6.95;3.20;;;;;;;1.94;100.00;101433.63;6240589;23;20008;-89
2023/03/27 02:07:40;;;;;;;9.88;3.50;;;;;;;1.98;100.00;101437.09;6237922;23;20065;-90
2023/03/27 02:10:14;;;;;;;9.02;3.30;;;;;;;1.85;100.00;101417.94;6214014;23;20012;-89
2023/03/27 02:12:45;;;;;;;9.25;3.47;;;;;;;2.02;100.00;101448.47;6241675;23;20425;-88
2023/03/27 02:15:18;;;;;;;8.70;3.05;;;;;;;2.05;100.00;101453.66;6243252;23;20296;-89
2023/03/27 02:17:51;;;;;;;9.30;3.50;;;;;;;2.07;100.00;101455.41;6242615;22;20030;-89
2023/03/27 02:20:16;;;;;;;6.00;3.15;;;;;;;2.11;100.00;101457.16;6221119;23;20032;-89
2023/03/27 02:22:44;;;;;;;9.40;3.67;;;;;;;2.09;100.00;101460.66;6268432;22;20003;-90
2023/03/27 02:25:22;;;;;;;9.15;3.70;;;;;;;2.13;100.00;101472.88;6270245;22;20051;-88
2023/03/27 02:27:58;;;;;;;10.95;3.40;;;;;;;2.11;100.00;101478.16;6242017;22;19996;-90
2023/03/27 02:30:28;;;;;;;8.88;3.45;;;;;;;2.06;100.00;101474.69;6243160;23;20043;-88
2023/03/27 02:33:13;;;;;;;7.50;3.35;;;;;;;2.05;100.00;101491.34;6269230;22;20051;-90
2023/03/27 02:35:41;;;;;;;12.25;3.58;;;;;;;2.04;100.00;101486.06;6268957;22;20012;-90
2023/03/27 02:38:18;;;;;;;6.93;3.22;;;;;;;1.99;100.00;101486.97;6245320;23;20037;-89
2023/03/27 02:40:49;;;;;;;9.30;3.35;;;;;;;1.94;100.00;101477.38;6243503;23;20004;-89
2023/03/27 02:43:42;;;;;;;9.07;3.40;;;;;;;1.91;100.00;101480.88;6244566;23;20441;-90
2023/03/27 02:46:28;;;;;;;7.85;3.70;;;;;;;1.80;100.00;101487.06;6244588;23;20000;-89
2023/03/27 02:48:57;;;;;;;7.70;3.67;;;;;;;1.63;100.00;101487.13;6243438;23;20016;-88
2023/03/27 02:51:31;;;;;;;11.48;4.07;;;;;;;1.59;100.00;101494.16;6214682;23;20008;-89
2023/03/27 02:54:13;;;;;;;10.23;3.90;;;;;;;1.55;100.00;101491.53;6215384;23;20012;-90
2023/03/27 02:56:47;;;;;;;10.38;4.05;;;;;;;1.46;100.00;101495.06;6241428;23;20004;-88
2023/03/27 02:59:26;;;;;;;7.80;3.45;;;;;;;1.38;100.00;101488.97;6240544;23;20078;-89
2023/03/27 03:01:51;;;;;;;8.75;4.07;;;;;;;1.28;100.00;101487.25;6240733;23;20015;-88
2023/03/27 03:04:24;;;;;;;8.27;3.50;;;;;;;1.30;100.00;101507.38;6213730;23;20016;-89
2023/03/27 03:06:49;;;;;;;7.32;3.53;;;;;;;1.20;100.00;101505.63;6212901;23;20457;-89
2023/03/27 03:09:17;;;;;;;9.55;3.80;;;;;;;1.20;100.00;101516.97;6239659;23;20019;-88
2023/03/27 03:11:50;;;;;;;10.40;4.00;;;;;;;1.09;100.00;101504.78;6213264;23;20008;-89
2023/03/27 03:14:19;;;;;;;12.00;3.90;;;;;;;1.02;100.00;101500.41;6247407;23;20083;-88
2023/03/27 03:16:45;;;;;;;8.75;4.00;;;;;;;1.07;100.00;101525.75;6221608;23;20019;-89
2023/03/27 03:19:10;;;;;;;11.63;4.30;;;;;;;1.05;100.00;101532.75;6239489;23;20004;-90
2023/03/27 03:21:36;;;;;;;7.88;3.95;;;;;;;1.04;100.00;101536.22;6213798;23;20012;-90
2023/03/27 03:24:02;;;;;;;6.55;3.67;;;;;;;1.08;100.00;101534.47;6241926;23;20441;-90
2023/03/27 03:26:28;;;;;;;7.22;3.40;;;;;;;1.09;100.00;101533.63;6240548;23;20078;-88
2023/03/27 03:28:56;;;;;;;10.57;4.30;;;;;;;1.13;100.00;101537.97;6212652;23;20023;-89
2023/03/27 03:31:22;;;;;;;12.45;4.50;;;;;;;1.16;100.00;101528.34;6211887;23;20114;-90
2023/03/27 03:33:47;;;;;;;8.40;4.22;;;;;;;1.18;100.00;101544.09;6239429;23;20031;-88
2023/03/27 03:36:13;;;;;;;13.63;4.65;;;;;;;1.09;100.00;101526.63;6213567;23;20014;-88
2023/03/27 03:38:40;;;;;;;9.45;3.53;;;;;;;1.06;100.00;101533.63;6238619;23;20000;-88
2023/03/27 03:41:05;;;;;;;11.85;4.03;;;;;;;1.11;100.00;101552.84;6214869;23;20011;-88
2023/03/27 03:43:31;;;;;;;13.60;4.43;;;;;;;1.06;100.00;101567.69;6240196;23;20008;-90
2023/03/27 03:45:57;;;;;;;9.63;3.95;;;;;;;0.98;100.00;101560.69;6212765;23;20055;-90
2023/03/27 03:48:22;;;;;;;7.82;3.80;;;;;;;0.89;100.00;101563.31;6238773;23;20471;-89
2023/03/27 03:50:48;;;;;;;8.23;3.83;;;;;;;0.87;100.00;101554.56;6239783;23;20176;-90
2023/03/27 03:53:16;;;;;;;10.80;4.05;;;;;;;0.91;100.00;101576.41;6239536;23;20074;-89
2023/03/27 03:55:42;;;;;;;15.10;4.72;;;;;;;0.86;100.00;101563.31;6239484;23;20000;-91
2023/03/27 03:58:08;;;;;;;9.45;3.80;;;;;;;0.91;100.00;101571.19;6239221;23;20075;-90
2023/03/27 04:00:37;;;;;;;8.32;3.38;;;;;;;0.85;100.00;101565.94;6240000;23;20469;-90
2023/03/27 04:03:04;;;;;;;9.00;4.00;;;;;;;0.99;100.00;101596.50;6238977;23;20012;-91
2023/03/27 04:05:30;;;;;;;8.60;4.07;;;;;;;0.98;100.00;101594.78;6238984;23;20011;-90
2023/03/27 04:07:58;;;;;;;9.70;4.15;;;;;;;0.91;100.00;101582.53;6211563;23;20477;-90
2023/03/27 04:10:24;;;;;;;9.75;3.95;;;;;;;1.08;100.00;101606.13;6246049;23;20015;-90
2023/03/27 04:12:50;;;;;;;6.45;3.88;;;;;;;1.14;100.00;101600.03;6241027;22;20054;-91
2023/03/27 04:15:15;;;;;;;7.78;4.10;;;;;;;1.20;100.00;101606.13;6267696;23;20001;-91
2023/03/27 04:17:42;;;;;;;10.43;3.90;;;;;;;1.28;100.00;101615.75;6266080;22;20032;-89
2023/03/27 04:20:07;;;;;;;6.15;3.47;;;;;;;1.28;100.00;101615.75;6234171;23;20024;-89
2023/03/27 04:22:36;;;;;;;9.73;4.10;;;;;;;1.30;100.00;101611.41;6267353;22;20008;-89
2023/03/27 04:25:06;;;;;;;6.60;3.95;;;;;;;1.33;100.00;101621.88;6241586;23;19992;-91
2023/03/27 04:27:32;;;;;;;9.20;3.63;;;;;;;1.33;100.00;101617.50;6240711;22;20016;-91
2023/03/27 04:29:58;;;;;;;8.40;4.15;;;;;;;1.32;100.00;101622.75;6268220;22;19992;-89
2023/03/27 04:32:25;;;;;;;12.05;3.90;;;;;;;1.24;100.00;101621.00;6241703;22;20003;-90
2023/03/27 04:34:53;;;;;;;8.48;4.15;;;;;;;1.12;100.00;101623.63;6268805;22;20016;-90
2023/03/27 04:37:18;;;;;;;6.78;3.47;;;;;;;1.16;100.00;101642.84;6268522;22;19996;-90
2023/03/27 04:39:45;;;;;;;8.88;4.05;;;;;;;1.12;100.00;101649.81;6269364;22;20026;-90
2023/03/27 04:42:11;;;;;;;6.28;3.35;;;;;;;1.06;100.00;101641.97;6268926;22;19992;-90
2023/03/27 04:44:37;;;;;;;7.15;4.03;;;;;;;1.07;100.00;101656.81;6238202;23;20039;-89
2023/03/27 04:47:05;;;;;;;10.30;3.60;;;;;;;1.10;100.00;101654.22;6246880;23;19996;-90
2023/03/27 04:49:37;;;;;;;8.15;3.30;;;;;;;1.10;100.00;101655.97;6223196;23;20431;-90
2023/03/27 04:52:04;;;;;;;9.25;3.30;;;;;;;1.03;100.00;101655.06;6268173;22;19992;-90
2023/03/27 04:54:30;;;;;;;7.55;3.30;;;;;;;1.03;100.00;101664.69;6269935;22;20080;-92
2023/03/27 04:56:55;;;;;;;9.48;3.63;;;;;;;1.01;100.00;101671.69;6244243;23;20092;-90
2023/03/27 04:59:21;;;;;;;9.70;3.60;;;;;;;0.94;100.00;101670.78;6245014;22;19996;-90
2023/03/27 05:01:46;;;;;;;6.82;3.60;;;;;;;0.92;100.00;101670.81;6244313;22;19988;-90
2023/03/27 05:04:12;;;;;;;6.45;3.55;;;;;;;0.91;100.00;101679.50;6244496;23;19996;-89
2023/03/27 05:06:39;;;;;;;6.88;3.63;;;;;;;0.93;100.00;101682.16;6228369;23;20016;-89
2023/03/27 05:09:04;;;;;;;8.55;3.63;;;;;;;0.86;100.00;101676.00;6217384;23;20023;-89
2023/03/27 05:11:30;;;;;;;7.15;3.00;;;;;;;0.89;100.00;101691.75;6243707;23;20011;-90
2023/03/27 05:13:55;;;;;;;11.05;4.47;;;;;;;0.91;100.00;101686.50;6245160;23;20406;-89
2023/03/27 05:16:21;;;;;;;8.43;3.97;;;;;;;0.88;100.00;101695.25;6226152;23;20034;-90
2023/03/27 05:18:46;;;;;;;6.45;3.67;;;;;;;0.95;100.00;101694.38;6252176;23;20401;-91
2023/03/27 05:21:12;;;;;;;8.52;4.85;;;;;;;0.99;100.00;101696.13;6242175;23;20465;-90
2023/03/27 05:23:37;;;;;;;9.52;3.65;;;;;;;1.05;100.00;101707.53;6216369;23;20003;-90
2023/03/27 05:26:03;;;;;;;8.27;3.83;;;;;;;1.04;100.00;101703.13;6242532;23;20033;-90
2023/03/27 05:28:29;;;;;;;9.38;4.60;;;;;;;1.12;100.00;101710.13;6241606;23;20138;-92
2023/03/27 05:30:55;;;;;;;10.15;4.15;;;;;;;1.11;100.00;101704.91;6213991;23;20078;-91
2023/03/27 05:33:21;;;;;;;7.32;3.90;;;;;;;1.21;100.00;101719.75;6241601;23;20012;-90
2023/03/27 05:35:48;;;;;;;8.57;3.58;;;;;;;1.21;100.00;101725.00;6212014;23;20189;-90
2023/03/27 05:38:14;;;;;;;8.65;3.90;;;;;;;1.17;100.00;101715.38;6239032;23;20564;-91
2023/03/27 05:40:40;;;;;;;7.03;3.65;;;;;;;1.23;100.00;101731.16;6238300;23;20043;-91
2023/03/27 05:43:06;;;;;;;7.22;3.58;;;;;;;1.19;100.00;101717.16;6214368;23;20012;-90
2023/03/27 05:45:32;;;;;;;6.00;3.20;;;;;;;1.30;100.00;101726.81;6239522;23;20008;-90
2023/03/27 05:47:59;;;;;;;8.85;3.80;;;;;;;1.28;100.00;101721.53;6239404;23;20033;-89
2023/03/27 05:50:28;;;;;;;5.47;3.35;;;;;;;1.38;100.00;101730.28;6238858;23;20268;-92
2023/03/27 05:53:00;;;;;;;9.75;3.30;;;;;;;1.35;100.00;101735.53;6238881;23;20011;-91
2023/03/27 05:55:26;;;;;;;10.65;3.63;;;;;;;1.36;100.00;101732.03;6238808;23;20079;-92
2023/03/27 05:57:52;;;;;;;6.78;3.90;;;;;;;1.39;100.00;101737.28;6238702;23;20168;-89
2023/03/27 06:00:23;;;;;;;8.52;3.97;;;;;;;1.45;100.00;101746.03;6237739;23;20012;-90
2023/03/27 06:02:52;;;;;;;9.18;3.78;;;;;;;1.56;100.00;101750.44;6213076;23;20004;-89
2023/03/27 06:05:18;;;;;;;9.27;4.00;;;;;;;1.57;100.00;101739.94;6210057;23;20012;-90
2023/03/27 06:07:44;;;;;;;6.97;3.83;;;;;;;1.64;100.00;101753.94;6211440;23;20365;-91
2023/03/27 06:10:13;;;;;;;10.57;4.00;;;;;;;1.71;100.00;101758.28;6239276;23;20038;-92
2023/03/27 06:12:38;;;;;;;8.40;3.60;;;;;;;1.70;100.00;101757.41;6238327;23;20336;-90
2023/03/27 06:15:08;;;;;;;7.97;3.60;;;;;;;1.66;100.00;101760.03;6212229;23;20062;-91
2023/03/27 06:17:37;;;;;;;9.77;3.67;;;;;;;1.65;100.00;101766.19;6237485;22;20016;-89
2023/03/27 06:20:10;;;;;;;5.80;3.72;;;;;;;1.68;100.00;101779.31;6213687;23;20107;-90
2023/03/27 06:22:40;;;;;;;9.98;4.10;;;;;;;1.89;100.00;101781.06;6211840;23;20094;-89
2023/03/27 06:25:06;;;;;;;7.38;3.67;;;;;;;2.20;100.00;101800.28;6211556;23;20016;-91
2023/03/27 06:27:31;;;;;;;6.53;3.70;;;;;;;2.30;100.00;101790.63;6238561;23;20050;-92
2023/03/27 06:29:56;;;;;;;7.78;3.97;;;;;;;2.34;100.00;101797.63;6240291;23;20492;-91
2023/03/27 06:32:21;;;;;;;6.35;3.72;;;;;;;2.22;100.00;101809.06;6239291;23;20075;-88
2023/03/27 06:34:48;;;;;;;6.78;4.13;;;;;;;2.04;100.00;101815.16;6240021;23;20680;-89
2023/03/27 06:37:14;;;;;;;6.80;3.50;;;;;;;1.86;100.00;101820.44;6213129;23;20004;-91
2023/03/27 06:39:39;;;;;;;8.30;3.88;;;;;;;1.74;100.00;101800.28;6212057;23;20422;-89
2023/03/27 06:42:05;;;;;;;6.20;3.58;;;;;;;1.72;100.00;101813.44;6244253;23;20008;-88
2023/03/27 06:44:31;;;;;;;7.20;3.10;;;;;;;1.55;100.00;101795.88;6220580;23;20004;-90
2023/03/27 06:46:56;;;;;;;6.55;3.13;;;;;;;1.52;100.00;101807.28;6220955;23;20012;-89
2023/03/27 06:49:22;;;;;;;9.50;3.80;;;;;;;1.57;100.00;101831.75;6215338;23;20066;-91
2023/03/27 06:51:47;;;;;;;6.70;3.92;;;;;;;1.47;100.00;101824.75;6212400;23;20099;-88
2023/03/27 06:54:13;;;;;;;6.53;3.47;;;;;;;1.40;100.00;101829.09;6213098;23;20004;-89
2023/03/27 06:56:38;;;;;;;6.45;3.78;;;;;;;1.39;100.00;101826.47;6238456;23;20465;-90
2023/03/27 06:59:04;;;;;;;6.78;4.43;;;;;;;1.64;100.00;101833.53;6215344;23;20027;-90
2023/03/27 07:01:29;;;;;;;6.82;4.20;;;;;;;1.98;100.00;101823.94;6217511;23;20287;-88
2023/03/27 07:03:55;;;;;;;7.88;4.18;;;;;;;2.34;100.00;101816.94;6215676;23;20019;-91
2023/03/27 07:06:21;;;;;;;5.75;3.60;;;;;;;2.74;100.00;101832.59;6216328;23;20004;-91
2023/03/27 07:08:46;;;;;;;4.32;3.28;;;;;;;3.25;100.00;101843.78;6215984;23;20010;-89
2023/03/27 07:11:11;;;;;;;4.95;3.10;;;;;;;3.49;100.00;101835.78;6253667;23;20000;-91
2023/03/27 07:13:39;;;;;;;4.80;3.78;;;;;;;3.89;100.00;101845.19;6242738;22;20070;-90
2023/03/27 07:16:06;;;;;;;4.45;3.63;;;;;;;4.24;100.00;101842.25;6242772;22;20012;-90
2023/03/27 07:18:31;;;;;;;4.80;3.50;;;;;;;4.38;100.00;101827.19;6268273;22;19996;-89
2023/03/27 07:20:56;;;;;;;4.65;3.65;;;;;;;4.75;99.48;101855.81;6268519;22;20023;-89
2023/03/27 07:23:22;;;;;;;5.70;3.50;;;;;;;4.97;95.36;101867.91;6269014;22;19988;-89
2023/03/27 07:25:48;;;;;;;5.28;2.80;;;;;;;4.77;93.85;101847.91;6229615;23;20008;-91
2023/03/27 07:28:15;;;;;;;5.28;3.55;;;;;;;5.08;93.72;101859.84;6243688;23;20042;-88
2023/03/27 07:30:41;;;;;;;5.38;3.20;;;;;;;5.20;91.40;101864.97;6243625;23;20016;-88
2023/03/27 07:33:08;;;;;;;5.88;2.75;;;;;;;5.43;89.20;101869.06;6245335;23;20000;-90
2023/03/27 07:35:39;;;;;;;3.95;2.60;;;;;;;5.68;87.01;101869.63;6217368;23;20014;-89
2023/03/27 07:38:04;;;;;;;5.45;2.42;;;;;;;5.87;87.31;101855.25;6217310;23;20090;-91
2023/03/27 07:40:32;;;;;;;4.47;2.60;;;;;;;6.27;83.95;101880.19;6241605;23;20067;-89
2023/03/27 07:42:58;;;;;;;5.55;2.63;;;;;;;6.26;81.29;101863.47;6215635;23;20019;-88
2023/03/27 07:45:23;;;;;;;4.65;2.67;;;;;;;6.48;81.76;101856.94;6242590;23;20008;-90
2023/03/27 07:47:49;;;;;;;4.22;2.10;;;;;;;6.81;79.69;101870.41;6243004;23;20005;-89
2023/03/27 07:50:17;;;;;;;6.53;2.63;;;;;;;7.18;78.23;101881.16;6242044;23;20055;-89
2023/03/27 07:52:44;;;;;;;3.83;2.20;;;;;;;7.60;75.79;101885.59;6214374;23;20035;-90
2023/03/27 07:55:16;;;;;;;4.00;2.30;;;;;;;7.64;74.90;101864.28;6213521;23;20741;-91
2023/03/27 07:57:47;;;;;;;4.45;2.30;;;;;;;8.01;73.49;101884.66;6239923;23;20006;-90
2023/03/27 08:00:14;;;;;;;5.60;2.30;;;;;;;8.28;71.05;101864.56;6213823;23;20027;-91
2023/03/27 08:02:41;;;;;;;6.43;2.10;;;;;;;8.68;67.92;101877.69;6213135;23;20702;-90
2023/03/27 08:05:07;;;;;;;6.15;2.50;;;;;;;8.80;66.40;101892.44;6238969;23;20082;-90
2023/03/27 08:07:38;;;;;;;5.20;2.40;;;;;;;9.11;67.72;101894.22;6240647;23;20011;-90
2023/03/27 08:10:05;;;;;;;7.45;2.40;;;;;;;8.95;64.12;101876.09;6240642;23;20330;-90
2023/03/27 08:12:32;;;;;;;4.45;2.20;;;;;;;9.20;64.73;101897.53;6212845;23;20037;-91
2023/03/27 08:14:58;;;;;;;5.45;2.50;;;;;;;9.62;63.18;101886.56;6239232;23;20018;-90
2023/03/27 08:17:28;;;;;;;5.60;2.47;;;;;;;9.87;62.47;101894.66;6239313;22;20028;-90
2023/03/27 08:19:53;;;;;;;5.70;2.30;;;;;;;9.95;61.45;101875.78;6244115;23;20061;-91
2023/03/27 08:22:20;;;;;;;6.88;2.00;;;;;;;9.91;57.70;101906.06;6266156;23;20060;-89
2023/03/27 08:24:46;;;;;;;5.80;2.22;;;;;;;10.27;58.08;101896.03;6240595;23;20027;-91
2023/03/27 08:27:12;;;;;;;6.70;2.25;;;;;;;10.67;57.97;101902.72;6241077;22;20000;-93
2023/03/27 08:29:37;;;;;;;5.38;2.40;;;;;;;10.97;55.90;101904.28;6241261;23;20011;-91
2023/03/27 08:32:04;;;;;;;5.20;1.95;;;;;;;10.66;55.65;101907.16;6267255;22;20063;-90
2023/03/27 08:34:30;;;;;;;5.40;1.85;;;;;;;9.77;56.15;101917.09;6266743;22;20032;-89
2023/03/27 08:36:55;;;;;;;5.90;1.98;;;;;;;8.81;59.73;101909.22;6240231;22;20181;-90
2023/03/27 08:39:21;;;;;;;9.02;2.38;;;;;;;8.31;61.04;101925.47;6237244;23;19992;-92
2023/03/27 08:41:55;;;;;;;7.55;2.03;;;;;;;8.19;63.55;101933.72;6266503;22;20012;-90
2023/03/27 08:44:23;;;;;;;6.63;2.25;;;;;;;8.30;62.24;101915.78;6266790;23;19988;-91
2023/03/27 08:46:55;;;;;;;2.67;1.60;;;;;;;8.68;61.45;101921.94;6236629;23;20008;-91
2023/03/27 08:49:23;;;;;;;5.22;1.90;;;;;;;8.30;62.96;101934.34;6241045;23;20103;-91
2023/03/27 08:51:57;;;;;;;4.78;1.75;;;;;;;8.28;63.92;101928.22;6240316;23;20019;-92
2023/03/27 08:54:30;;;;;;;;;;;;;;;9.18;64.42;101939.19;6243681;23;20027;-91
2023/03/27 08:56:56;;;;;;;4.00;1.90;;;;;;;9.51;58.23;101939.16;6242827;23;19918;-89
2023/03/27 08:59:25;;;;;;;3.95;1.70;;;;;;;10.56;56.39;101943.00;6249053;23;20004;-88
2023/03/27 09:02:11;;;;;;;6.35;1.75;;;;;;;11.10;52.96;101946.47;6258917;23;20011;-83
2023/03/27 09:04:58;;;;;;;4.75;1.90;;;;;;;11.99;51.84;101943.19;6237121;23;20019;-90
2023/03/27 09:07:47;;;;;;;5.97;2.00;;;;;;;12.51;51.90;101949.97;6229253;23;20188;-91
2023/03/27 09:10:39;;;;;;;4.15;1.50;;;;;;;12.77;48.92;101927.50;6221821;23;20007;-92
2023/03/27 09:13:10;;;;;;;3.38;1.85;;;;;;;13.39;48.40;101953.31;6247428;23;19996;-91
2023/03/27 09:16:01;;;;;;;5.32;1.67;;;;;;;14.33;47.16;101923.00;6242821;23;20018;-92
2023/03/27 09:18:36;;;;;;;2.55;1.35;;;;;;;13.87;44.04;101893.13;6222020;23;20377;-87
2023/03/27 09:21:09;;;;;;;4.60;1.23;;;;;;;13.21;44.01;101908.69;6255327;23;20003;-91
2023/03/27 09:23:45;;;;;;;3.75;1.40;;;;;;;12.87;46.48;101896.78;6215782;23;20011;-90
2023/03/27 09:26:19;;;;;;;5.30;1.52;;;;;;;12.70;44.87;101958.09;6241373;23;20028;-89
2023/03/27 09:28:50;;;;;;;4.55;1.42;;;;;;;12.40;46.61;101902.34;6241017;23;20004;-90
2023/03/27 09:31:20;;;;;;;2.95;1.30;;;;;;;13.09;44.52;101941.28;6240212;23;20011;-91
2023/03/27 09:33:46;;;;;;;3.95;1.30;;;;;;;12.54;45.88;101935.63;6258450;22;20087;-90
2023/03/27 09:36:15;;;;;;;2.75;1.00;;;;;;;12.05;44.86;101913.63;6238392;22;20054;-92
2023/03/27 10:10:44;;;;;;;2.65;1.45;;;;;;;8.40;60.18;101956.25;6203057;22;20024;-95
2023/03/27 10:13:12;;;;;;;2.88;1.20;;;;;;;8.60;60.59;101984.97;6184202;23;20048;-89
2023/03/27 10:15:40;;;;;;;1.92;1.05;;;;;;;8.80;61.54;102016.31;6182383;23;20181;-89
2023/03/27 10:18:29;;;;;;;4.63;1.10;;;;;;;9.20;58.91;102025.03;6208345;23;20056;-89
2023/03/27 10:20:58;;;;;;;2.25;1.40;;;;;;;9.08;57.16;102029.78;6183558;23;20035;-93
2023/03/27 10:23:24;;;;;;;1.85;1.13;;;;;;;9.80;55.73;102026.03;6183250;23;20032;-91
2023/03/27 10:25:51;;;;;;;2.30;1.00;;;;;;;10.97;52.83;102002.00;6209790;23;20475;-93
2023/03/27 10:28:21;;;;;;;3.30;1.55;;;;;;;10.91;52.23;102024.38;6207537;23;20007;-92
2023/03/27 10:31:00;;;;;;;4.20;1.45;;;;;;;11.84;51.03;101963.34;6207363;23;20275;-93
2023/03/27 10:33:31;;;;;;;3.97;1.30;;;;;;;12.70;48.40;102004.34;6211022;23;20099;-91
2023/03/27 10:35:58;;;;;;;3.90;1.20;;;;;;;13.82;43.11;101977.25;6208733;23;20004;-93
2023/03/27 10:38:24;;;;;;;3.65;1.17;;;;;;;15.58;41.02;101979.16;6206354;23;20025;-90
2023/03/27 10:40:50;;;;;;;3.60;1.35;;;;;;;16.49;37.18;101986.63;6208311;23;20055;-91
2023/03/27 10:43:27;;;;;;;4.20;1.30;;;;;;;17.62;36.75;101976.31;6214421;23;20435;-93
2023/03/27 10:45:57;;;;;;;3.90;1.30;;;;;;;18.75;34.24;102022.94;6215802;23;20011;-91
2023/03/27 10:48:46;;;;;;;3.58;1.27;;;;;;;19.98;35.73;102023.44;6214272;23;20445;-92
2023/03/27 10:51:36;;;;;;;3.03;1.40;;;;;;;19.81;32.90;102019.22;6210521;23;20043;-93
2023/03/27 10:54:16;;;;;;;3.53;1.02;;;;;;;20.00;33.15;102005.28;6210297;23;20071;-91
2023/03/27 10:56:51;;;;;;;4.18;1.20;;;;;;;20.80;33.75;102019.19;6215852;23;20016;-91
2023/03/27 10:59:28;;;;;;;3.60;1.02;;;;;;;20.67;30.97;101988.66;6214259;23;20018;-92
2023/03/27 11:02:02;;;;;;;3.15;1.25;;;;;;;19.48;31.17;101992.75;6212303;23;20023;-94
2023/03/27 11:04:49;;;;;;;2.35;1.23;;;;;;;20.38;31.39;102020.53;6213024;23;20008;-94
2023/03/27 11:07:28;;;;;;;3.40;1.00;;;;;;;18.00;33.73;102013.44;6214311;23;20005;-91
2023/03/27 11:10:10;;;;;;;3.88;1.30;;;;;;;16.99;36.58;102050.06;6213652;23;20016;-91
2023/03/27 11:12:39;;;;;;;2.58;1.10;;;;;;;14.06;38.39;102047.50;6241922;23;20479;-91
2023/03/27 11:15:14;;;;;;;2.90;1.17;;;;;;;11.07;50.64;102085.13;6245652;23;20114;-89
2023/03/27 11:18:03;;;;;;;3.20;1.20;;;;;;;8.52;58.45;102070.06;6241029;23;20011;-90
2023/03/27 11:21:04;;;;;;;2.97;1.08;;;;;;;6.95;66.29;102154.25;6218556;23;20061;-91
2023/03/27 11:23:51;;;;;;;3.08;1.30;;;;;;;5.20;77.19;102122.78;6218673;23;20124;-88
2023/03/27 11:26:21;;;;;;;2.95;1.30;;;;;;;4.46;79.29;102168.06;6245376;23;20004;-88
2023/03/27 11:29:08;;;;;;;4.28;1.77;;;;;;;3.69;86.19;102114.75;6242144;23;20015;-88
2023/03/27 11:31:42;;;;;;;5.40;1.65;;;;;;;3.15;91.53;102060.44;6244232;23;20413;-87
2023/03/27 11:42:11;;;;;;;3.40;1.75;;;;;;;4.82;92.70;102041.28;6212610;22;20473;-90
2023/03/27 12:13:53;;;;;;;3.67;1.30;;;;;;;21.67;34.99;102086.63;6251149;22;20032;-88
2023/03/27 12:16:43;;;;;;;4.82;1.50;;;;;;;22.24;34.96;102092.00;6267557;22;20000;-92
2023/03/27 12:19:57;;;;;;;3.42;1.25;;;;;;;23.00;34.31;102090.28;6260877;22;20008;-95
2023/03/27 12:23:00;;;;;;;3.13;1.10;;;;;;;21.33;33.57;102072.97;6128499;23;20388;-96
2023/03/27 12:26:06;;;;;;;2.70;1.60;;;;;;;22.30;35.47;102093.34;6238293;22;20011;-96
2023/03/27 14:58:39;;;;;;;3.45;1.25;;;;;;;9.93;39.82;102099.22;6249091;22;20516;-94
2023/03/27 15:01:07;;;;;;;4.40;1.60;;;;;;;9.25;40.31;102101.94;6247924;22;20126;-92
2023/03/27 15:03:45;;;;;;;4.18;1.63;;;;;;;8.89;40.78;102138.22;6284612;22;20014;-92
2023/03/27 15:12:25;;;;;;;5.00;2.17;;;;;;;9.28;47.02;102148.81;6277234;22;19996;-96
2023/03/27 15:14:51;;;;;;;6.60;2.10;;;;;;;8.76;50.31;102113.75;6284133;22;20014;-91
2023/03/27 15:17:29;;;;;;;6.50;2.00;;;;;;;8.57;52.84;102144.25;6289598;22;19992;-96
2023/03/27 15:20:08;;;;;;;8.82;2.10;;;;;;;8.28;53.88;102166.94;6287535;22;20038;-94
2023/03/27 15:22:43;;;;;;;6.10;2.40;;;;;;;7.53;56.21;102138.34;6254212;22;20063;-91
2023/03/27 15:25:16;;;;;;;5.47;2.28;;;;;;;7.67;57.07;102215.81;6274586;22;20003;-93
2023/03/27 15:28:11;;;;;;;5.03;2.00;;;;;;;7.40;56.30;102162.38;6246798;22;20014;-89